Time;durP1;ratioP1;P1;durP2;ratioP2;P2;SDS_P1;SDS_P2;PMS_P1;PMS_P2;Temp;Humidity;BMP_temperature;BMP_pressure;BME280_temperature;BME280_humidity;BME280_pressure;Samples;Min_cycle;Max_cycle;Signal;HPM_P1;HPM_P2
2022/12/18 00:01:31;;;;;;;133.10;39.10;;;-3.90;99.90;;;;;;5030820;28;20147;-42
2022/12/18 00:03:57;;;;;;;121.80;37.80;;;-3.90;99.90;;;;;;5030781;28;20056;-41
2022/12/18 00:06:24;;;;;;;130.60;41.10;;;-3.90;99.90;;;;;;5030311;28;20048;-42
2022/12/18 00:08:50;;;;;;;125.13;38.08;;;-3.90;99.90;;;;;;5030702;28;20279;-42
2022/12/18 00:11:21;;;;;;;108.97;36.22;;;-3.90;99.90;;;;;;5030342;28;20643;-42
2022/12/18 00:13:47;;;;;;;128.55;38.38;;;-3.90;99.90;;;;;;5030465;28;20075;-42
2022/12/18 00:16:15;;;;;;;128.48;37.75;;;-3.90;99.90;;;;;;5030225;28;20045;-43
2022/12/18 00:18:42;;;;;;;120.45;35.72;;;-3.90;99.90;;;;;;5030206;28;20052;-44
2022/12/18 00:21:10;;;;;;;115.30;34.83;;;-3.90;99.90;;;;;;5030137;28;20513;-43
2022/12/18 00:23:36;;;;;;;113.72;34.42;;;-3.90;99.90;;;;;;5030270;28;20762;-43
2022/12/18 00:26:09;;;;;;;121.47;36.17;;;-3.90;99.90;;;;;;5030356;28;20041;-43
2022/12/18 00:28:35;;;;;;;115.55;35.75;;;-3.90;99.90;;;;;;5029826;28;20049;-42
2022/12/18 00:31:07;;;;;;;113.75;34.83;;;-3.90;99.90;;;;;;5029916;28;20037;-42
2022/12/18 00:33:33;;;;;;;106.85;32.63;;;-4.00;99.90;;;;;;5029605;28;20049;-42
2022/12/18 00:36:07;;;;;;;112.47;33.45;;;-4.00;99.90;;;;;;5029484;28;20045;-42
2022/12/18 00:38:34;;;;;;;109.50;35.40;;;-4.00;99.90;;;;;;5030005;28;20041;-42
2022/12/18 00:41:00;;;;;;;102.70;34.63;;;-4.00;99.90;;;;;;5030046;28;20048;-43
2022/12/18 00:43:25;;;;;;;111.35;34.58;;;-4.10;99.90;;;;;;5029479;28;20777;-43
2022/12/18 00:45:51;;;;;;;116.10;37.10;;;-4.10;99.90;;;;;;5029557;28;20137;-42
2022/12/18 00:48:17;;;;;;;108.88;33.47;;;-4.20;99.90;;;;;;5027720;28;20123;-44
2022/12/18 00:50:42;;;;;;;109.50;34.97;;;-4.20;99.90;;;;;;5029515;28;20056;-42
2022/12/18 00:53:09;;;;;;;103.20;32.38;;;-4.20;99.90;;;;;;5029307;28;20045;-43
2022/12/18 00:55:37;;;;;;;120.25;35.00;;;-4.20;99.90;;;;;;5029431;28;20081;-43
2022/12/18 00:58:02;;;;;;;115.50;35.70;;;-4.20;99.90;;;;;;5029096;28;20404;-44
2022/12/18 01:00:28;;;;;;;134.02;37.67;;;-4.20;99.90;;;;;;5029196;28;20176;-43
2022/12/18 01:02:54;;;;;;;118.20;33.88;;;-4.20;99.90;;;;;;5029090;28;20044;-44
2022/12/18 01:05:19;;;;;;;125.68;36.42;;;-4.30;99.90;;;;;;5029382;28;20053;-43
2022/12/18 01:07:45;;;;;;;119.20;36.25;;;-4.30;99.90;;;;;;5029069;28;20076;-42
2022/12/18 01:10:12;;;;;;;127.55;37.35;;;-4.30;99.90;;;;;;5028940;28;20049;-42
2022/12/18 01:12:38;;;;;;;116.95;36.17;;;-4.30;99.90;;;;;;5029094;28;20044;-44
2022/12/18 01:15:06;;;;;;;119.53;39.38;;;-4.40;99.90;;;;;;5029039;28;20068;-42
2022/12/18 01:17:31;;;;;;;124.00;37.15;;;-4.30;99.90;;;;;;5028609;28;20071;-43
2022/12/18 01:19:57;;;;;;;126.35;38.58;;;-4.40;99.90;;;;;;5029020;28;20037;-43
2022/12/18 01:22:23;;;;;;;129.40;39.38;;;-4.40;99.90;;;;;;5028815;28;20380;-43
2022/12/18 01:24:49;;;;;;;119.53;39.22;;;-4.50;99.90;;;;;;5028770;28;20072;-43
2022/12/18 01:27:15;;;;;;;136.27;42.78;;;-4.50;99.90;;;;;;5028750;28;20047;-43
2022/12/18 01:29:40;;;;;;;125.15;40.13;;;-2.80;99.90;;;;;;5028840;28;20111;-43
2022/12/18 01:32:06;;;;;;;132.60;39.17;;;-4.70;99.90;;;;;;5028983;28;20053;-42
2022/12/18 01:34:31;;;;;;;123.95;37.63;;;-4.80;99.90;;;;;;5028347;28;20040;-43
2022/12/18 01:36:57;;;;;;;137.57;41.10;;;-4.90;99.90;;;;;;5027485;28;20053;-43
2022/12/18 01:39:23;;;;;;;117.63;37.55;;;-5.00;99.90;;;;;;5029209;28;20044;-42
2022/12/18 01:42:04;;;;;;;111.47;36.75;;;-5.10;99.90;;;;;;5029377;28;20073;-43
2022/12/18 01:44:51;;;;;;;124.80;39.47;;;-5.10;99.90;;;;;;5028839;28;20050;-43
2022/12/18 01:47:23;;;;;;;112.60;36.25;;;-5.20;99.90;;;;;;5029043;28;20435;-43
2022/12/18 01:49:49;;;;;;;123.57;40.42;;;-5.30;99.90;;;;;;5028913;28;20041;-42
2022/12/18 01:52:15;;;;;;;120.88;39.92;;;-5.40;99.90;;;;;;5028702;28;20136;-44
2022/12/18 01:54:41;;;;;;;122.32;38.08;;;-5.40;99.90;;;;;;5028031;28;20053;-43
2022/12/18 01:57:07;;;;;;;123.43;41.10;;;-5.30;99.90;;;;;;5028044;28;20115;-44
2022/12/18 01:59:35;;;;;;;130.57;38.63;;;-5.50;99.90;;;;;;5028323;28;20077;-42
2022/12/18 02:02:02;;;;;;;124.32;36.80;;;-5.60;99.90;;;;;;5028555;28;20083;-44
2022/12/18 02:04:28;;;;;;;126.65;41.95;;;-5.40;99.90;;;;;;5026801;28;20052;-43
2022/12/18 02:07:30;;;;;;;134.73;38.60;;;-5.70;99.90;;;;;;5028020;28;20049;-44
2022/12/18 02:10:20;;;;;;;98.70;30.25;;;-5.80;99.90;;;;;;5028270;28;20102;-43
2022/12/18 02:12:52;;;;;;;135.40;40.03;;;-5.80;99.90;;;;;;5015749;28;20045;-42
2022/12/18 02:15:34;;;;;;;128.63;40.03;;;-5.80;99.90;;;;;;5028115;28;20052;-43
2022/12/18 02:18:14;;;;;;;132.93;40.92;;;-5.80;99.90;;;;;;5028268;28;20360;-42
2022/12/18 02:20:47;;;;;;;126.22;40.40;;;-5.90;99.90;;;;;;5028185;28;20052;-43
2022/12/18 02:23:34;;;;;;;114.63;40.30;;;-6.00;99.90;;;;;;5028241;28;20045;-43
2022/12/18 02:26:15;;;;;;;126.70;40.33;;;-6.10;99.90;;;;;;5028056;28;20049;-43
2022/12/18 02:28:56;;;;;;;119.18;39.85;;;-6.00;99.90;;;;;;5027428;28;20056;-42
2022/12/18 02:31:25;;;;;;;121.72;39.53;;;-6.00;99.90;;;;;;5028259;28;20095;-43
2022/12/18 02:33:54;;;;;;;119.93;40.78;;;-6.00;99.90;;;;;;5027619;28;20104;-43
2022/12/18 02:36:22;;;;;;;123.63;40.08;;;-6.00;99.90;;;;;;5027669;28;20046;-42
2022/12/18 02:38:50;;;;;;;107.95;36.95;;;-6.00;99.90;;;;;;5027375;28;20375;-43
2022/12/18 02:41:16;;;;;;;113.82;40.38;;;-6.00;99.90;;;;;;5027424;28;20045;-44
2022/12/18 02:43:48;;;;;;;110.55;36.97;;;-6.10;99.90;;;;;;5026963;28;20908;-43
2022/12/18 02:46:45;;;;;;;111.85;38.10;;;-6.10;99.90;;;;;;5027438;28;20049;-43
2022/12/18 02:49:36;;;;;;;104.95;36.67;;;-6.30;99.90;;;;;;5027279;28;20061;-43
2022/12/18 02:52:17;;;;;;;105.20;36.55;;;-6.20;99.90;;;;;;5024909;28;20103;-44
2022/12/18 02:54:57;;;;;;;108.82;36.58;;;-6.30;99.90;;;;;;5009429;28;20053;-42
2022/12/18 02:57:53;;;;;;;98.35;34.88;;;-6.40;99.90;;;;;;5027236;28;20053;-42
2022/12/18 03:00:24;;;;;;;112.82;37.17;;;-6.50;99.90;;;;;;5027247;28;20045;-42
2022/12/18 03:03:09;;;;;;;105.68;35.33;;;-6.40;99.90;;;;;;5027317;28;20191;-43
2022/12/18 03:05:51;;;;;;;109.45;36.20;;;-6.50;99.90;;;;;;5027474;28;20118;-41
2022/12/18 03:08:19;;;;;;;;;;;-6.50;99.90;;;;;;5028100;28;20044;-42
2022/12/18 03:11:09;;;;;;;99.65;35.55;;;-6.50;99.90;;;;;;5027035;28;19927;-41
2022/12/18 03:13:57;;;;;;;109.10;35.20;;;-6.60;99.90;;;;;;5023953;28;20119;-41
2022/12/18 03:16:27;;;;;;;99.95;34.08;;;-6.60;99.90;;;;;;5027055;28;20077;-42
2022/12/18 03:19:03;;;;;;;105.35;35.40;;;-6.60;99.90;;;;;;5027155;28;20044;-43
2022/12/18 03:21:51;;;;;;;111.18;35.85;;;-6.60;99.90;;;;;;5026920;28;20052;-42
2022/12/18 03:24:18;;;;;;;108.45;35.28;;;-6.60;99.90;;;;;;5025984;28;20041;-41
2022/12/18 03:26:49;;;;;;;116.53;37.33;;;-6.60;99.90;;;;;;5026574;28;20041;-43
2022/12/18 03:29:25;;;;;;;101.28;35.17;;;-6.60;99.90;;;;;;5026984;28;20049;-41
2022/12/18 03:31:58;;;;;;;97.75;36.85;;;-6.70;99.90;;;;;;5026413;28;20152;-43
2022/12/18 03:34:30;;;;;;;102.80;32.10;;;-6.70;99.90;;;;;;5026203;28;20598;-43
2022/12/18 03:36:57;;;;;;;105.18;34.80;;;-6.80;99.90;;;;;;5025264;28;20080;-41
2022/12/18 03:39:24;;;;;;;103.20;36.45;;;-6.10;99.90;;;;;;5027204;28;20052;-42
2022/12/18 03:41:59;;;;;;;96.95;34.10;;;-6.80;99.90;;;;;;5026508;28;20784;-42
2022/12/18 03:44:30;;;;;;;91.05;31.52;;;-6.90;99.90;;;;;;5026817;28;20048;-42
2022/12/18 03:47:04;;;;;;;89.47;32.17;;;-6.90;99.90;;;;;;5026829;28;20037;-42
2022/12/18 03:49:30;;;;;;;84.05;30.88;;;-6.90;99.90;;;;;;5026854;28;20083;-42
2022/12/18 03:52:24;;;;;;;80.22;30.75;;;-6.90;99.90;;;;;;5026852;28;20076;-43
2022/12/18 03:54:52;;;;;;;88.20;31.80;;;-7.00;99.90;;;;;;5023061;28;20057;-41
2022/12/18 03:57:24;;;;;;;75.93;28.67;;;-7.00;99.90;;;;;;5026435;28;20057;-42
2022/12/18 03:59:55;;;;;;;84.18;31.30;;;-6.90;99.90;;;;;;5026480;28;20041;-41
2022/12/18 04:02:23;;;;;;;77.28;29.50;;;-6.90;99.90;;;;;;5026389;28;20045;-42
2022/12/18 04:04:56;;;;;;;82.95;28.40;;;-7.00;99.90;;;;;;5024501;28;20510;-43
2022/12/18 04:07:23;;;;;;;75.35;27.92;;;-7.00;99.90;;;;;;5025698;28;20079;-42
2022/12/18 04:09:50;;;;;;;79.75;29.38;;;-7.00;99.90;;;;;;5026895;28;20129;-42
2022/12/18 04:12:16;;;;;;;69.13;26.90;;;-7.10;99.90;;;;;;5026809;28;20053;-42
2022/12/18 04:14:41;;;;;;;70.40;25.35;;;-7.10;99.90;;;;;;5026511;28;20403;-43
2022/12/18 04:17:07;;;;;;;62.42;25.77;;;-7.10;99.90;;;;;;5026401;28;20094;-42
2022/12/18 04:19:33;;;;;;;71.32;27.35;;;-7.10;99.90;;;;;;5026706;28;20132;-42
2022/12/18 04:21:58;;;;;;;68.72;26.58;;;-7.00;99.90;;;;;;5026383;28;20049;-43
2022/12/18 04:24:24;;;;;;;68.20;26.20;;;-7.00;99.90;;;;;;5026873;28;20067;-43
2022/12/18 04:26:50;;;;;;;60.50;25.85;;;-7.10;99.90;;;;;;5026321;28;20044;-43
2022/12/18 04:29:15;;;;;;;62.30;27.08;;;-7.00;99.90;;;;;;5026683;28;20037;-42
2022/12/18 04:31:41;;;;;;;58.28;23.25;;;-7.10;99.90;;;;;;5027065;28;20041;-41
2022/12/18 04:34:07;;;;;;;54.50;23.55;;;-7.00;99.90;;;;;;5026289;28;20045;-42
2022/12/18 04:36:32;;;;;;;63.53;25.88;;;-7.00;99.90;;;;;;5028089;28;20537;-43
2022/12/18 04:38:58;;;;;;;58.15;24.55;;;-7.00;99.90;;;;;;5029798;28;20568;-43
2022/12/18 04:41:24;;;;;;;62.00;26.38;;;-7.00;99.90;;;;;;5029991;28;20076;-41
2022/12/18 04:43:49;;;;;;;67.78;25.13;;;-7.00;99.90;;;;;;5029848;28;20056;-42
2022/12/18 04:46:15;;;;;;;57.45;24.60;;;-7.00;99.90;;;;;;5061462;28;20049;-41
2022/12/18 04:48:40;;;;;;;64.40;26.00;;;-7.00;99.90;;;;;;5028199;28;20108;-42
2022/12/18 04:51:07;;;;;;;60.10;24.95;;;-7.00;99.90;;;;;;5029242;28;20049;-43
2022/12/18 04:53:33;;;;;;;56.47;26.05;;;-7.00;99.90;;;;;;5029496;28;20057;-42
2022/12/18 04:56:13;;;;;;;59.50;25.17;;;-7.00;99.90;;;;;;5029016;28;20049;-42
2022/12/18 04:58:41;;;;;;;60.47;25.75;;;-7.10;99.90;;;;;;5029296;28;20061;-42
2022/12/18 05:01:07;;;;;;;56.30;24.35;;;-7.10;99.90;;;;;;5029438;28;20053;-42
2022/12/18 05:03:33;;;;;;;61.53;23.35;;;-7.20;99.90;;;;;;5029522;28;20041;-43
2022/12/18 05:05:59;;;;;;;60.83;24.13;;;-7.20;99.90;;;;;;5029065;28;20052;-43
2022/12/18 05:08:25;;;;;;;62.97;24.95;;;-7.30;99.90;;;;;;5029175;28;20041;-42
2022/12/18 05:11:02;;;;;;;54.83;23.25;;;-7.30;99.90;;;;;;5027662;28;20045;-43
2022/12/18 05:13:29;;;;;;;61.50;23.67;;;-7.40;99.90;;;;;;5029244;28;20052;-42
2022/12/18 05:15:55;;;;;;;64.35;24.02;;;-7.40;99.90;;;;;;5028901;28;20042;-42
2022/12/18 05:18:21;;;;;;;55.92;23.70;;;-7.40;99.90;;;;;;5029467;28;20048;-42
2022/12/18 05:20:47;;;;;;;55.00;24.33;;;-7.60;99.90;;;;;;5029240;28;20820;-42
2022/12/18 05:23:13;;;;;;;61.00;25.77;;;-7.60;99.90;;;;;;5029282;28;20042;-41
2022/12/18 05:25:38;;;;;;;58.22;23.67;;;-7.60;99.90;;;;;;5029319;28;20748;-42
2022/12/18 05:28:04;;;;;;;58.85;23.58;;;-7.70;99.90;;;;;;5029124;28;20045;-41
2022/12/18 05:30:30;;;;;;;62.90;25.20;;;-7.70;99.90;;;;;;5028932;28;20052;-41
2022/12/18 05:32:55;;;;;;;54.58;23.42;;;-7.80;99.90;;;;;;5028948;28;20123;-41
2022/12/18 05:35:21;;;;;;;59.20;22.40;;;-7.80;99.90;;;;;;5028353;28;20037;-42
2022/12/18 05:37:47;;;;;;;56.60;23.92;;;-7.90;99.90;;;;;;5029274;28;20042;-42
2022/12/18 05:40:12;;;;;;;56.08;23.38;;;-7.90;99.90;;;;;;5029032;28;20048;-41
2022/12/18 05:42:38;;;;;;;62.63;23.38;;;-7.90;99.90;;;;;;5029014;28;20049;-42
2022/12/18 05:45:05;;;;;;;61.70;24.17;;;-7.90;99.90;;;;;;5028970;28;20098;-41
2022/12/18 05:47:31;;;;;;;59.83;25.35;;;-7.90;99.90;;;;;;5028279;28;20368;-42
2022/12/18 05:49:56;;;;;;;58.65;23.42;;;-7.70;99.90;;;;;;5028703;28;20052;-43
2022/12/18 05:52:22;;;;;;;58.28;24.20;;;-7.90;99.90;;;;;;5028825;28;20195;-43
2022/12/18 05:54:48;;;;;;;56.00;22.48;;;-7.90;99.90;;;;;;5026906;28;20045;-43
2022/12/18 05:57:14;;;;;;;48.58;22.15;;;-7.90;99.90;;;;;;5028211;28;20119;-42
2022/12/18 05:59:39;;;;;;;54.05;22.50;;;-7.90;99.90;;;;;;5028763;28;20423;-41
2022/12/18 06:02:05;;;;;;;57.30;24.52;;;-7.90;99.90;;;;;;5027266;28;20037;-42
2022/12/18 06:04:31;;;;;;;55.30;22.23;;;-7.70;99.90;;;;;;5028463;28;20038;-43
2022/12/18 06:06:57;;;;;;;53.22;21.52;;;-7.90;99.90;;;;;;5028456;28;20038;-42
2022/12/18 06:09:23;;;;;;;55.67;22.67;;;-7.90;99.90;;;;;;5028701;28;20072;-43
2022/12/18 06:11:50;;;;;;;54.08;20.77;;;-7.90;99.90;;;;;;5028518;28;20403;-41
2022/12/18 06:14:17;;;;;;;58.22;21.25;;;-7.90;99.90;;;;;;5027553;28;20046;-42
2022/12/18 06:16:42;;;;;;;48.75;21.10;;;-7.90;99.90;;;;;;5027623;28;20041;-42
2022/12/18 06:19:15;;;;;;;50.33;21.15;;;-8.00;99.90;;;;;;5027927;28;20046;-42
2022/12/18 06:21:41;;;;;;;49.58;22.13;;;-7.80;99.90;;;;;;5028154;28;20045;-41
2022/12/18 06:24:07;;;;;;;53.70;22.77;;;-8.00;99.90;;;;;;5027593;28;20515;-42
2022/12/18 06:26:33;;;;;;;52.65;22.60;;;-7.90;99.90;;;;;;5028177;28;20073;-42
2022/12/18 06:28:59;;;;;;;55.67;22.73;;;-8.10;99.90;;;;;;5027662;28;20088;-42
2022/12/18 06:31:25;;;;;;;50.55;21.73;;;-8.20;99.90;;;;;;5028094;28;20045;-41
2022/12/18 06:33:50;;;;;;;49.05;21.20;;;-8.10;99.90;;;;;;5027829;28;20124;-42
2022/12/18 06:36:16;;;;;;;47.67;22.23;;;-8.20;99.90;;;;;;5027549;28;20156;-42
2022/12/18 06:38:43;;;;;;;51.15;20.45;;;-8.30;99.90;;;;;;5027852;28;20367;-41
2022/12/18 06:41:11;;;;;;;49.53;20.55;;;-8.30;99.90;;;;;;5027424;28;20828;-43
2022/12/18 06:43:37;;;;;;;49.13;20.65;;;-8.30;99.90;;;;;;5027500;28;20052;-42
2022/12/18 06:46:03;;;;;;;46.05;20.77;;;-8.20;99.90;;;;;;5027664;28;20045;-42
2022/12/18 06:48:29;;;;;;;48.78;20.05;;;-8.40;99.90;;;;;;5027936;28;20061;-42
2022/12/18 06:50:55;;;;;;;46.03;20.58;;;-8.30;99.90;;;;;;5028066;28;20523;-41
2022/12/18 06:53:21;;;;;;;48.92;21.92;;;-8.30;99.90;;;;;;5027418;28;20625;-42
2022/12/18 06:55:47;;;;;;;44.50;19.05;;;-8.30;99.90;;;;;;5027683;28;20046;-42
2022/12/18 06:58:12;;;;;;;49.40;21.17;;;-8.30;99.90;;;;;;5027289;28;20057;-42
2022/12/18 07:00:38;;;;;;;47.70;21.45;;;-8.30;99.90;;;;;;5027786;28;20447;-41
2022/12/18 07:03:04;;;;;;;44.45;21.02;;;-8.30;99.90;;;;;;5027613;28;20029;-42
2022/12/18 07:05:30;;;;;;;51.72;21.48;;;-8.30;99.90;;;;;;5027673;28;20501;-42
2022/12/18 07:07:55;;;;;;;46.83;21.08;;;-8.30;99.90;;;;;;5027510;28;20056;-42
2022/12/18 07:10:21;;;;;;;50.70;21.55;;;-8.30;99.90;;;;;;5027112;28;20081;-41
2022/12/18 07:12:46;;;;;;;44.92;21.30;;;-8.20;99.90;;;;;;5027246;28;20049;-42
2022/12/18 07:15:12;;;;;;;45.47;20.60;;;-8.30;99.90;;;;;;5026487;28;20045;-40
2022/12/18 07:17:38;;;;;;;48.13;20.55;;;-8.30;99.90;;;;;;4982798;28;20060;-40
2022/12/18 07:20:04;;;;;;;51.17;22.60;;;-8.40;99.90;;;;;;5023858;28;20586;-42
2022/12/18 07:22:30;;;;;;;52.20;22.33;;;-8.30;99.90;;;;;;5025366;28;20048;-39
2022/12/18 07:24:56;;;;;;;45.22;20.70;;;-8.30;99.90;;;;;;5025906;28;20049;-40
2022/12/18 07:27:22;;;;;;;45.35;21.95;;;-8.30;99.90;;;;;;5025818;28;20103;-41
2022/12/18 07:29:48;;;;;;;48.15;22.23;;;-8.20;99.90;;;;;;5026078;28;20034;-43
2022/12/18 07:32:14;;;;;;;42.70;20.10;;;-8.20;99.90;;;;;;5026923;28;20052;-43
2022/12/18 07:34:39;;;;;;;43.92;20.52;;;-8.20;99.90;;;;;;5026880;28;20768;-50
2022/12/18 07:37:05;;;;;;;41.13;20.13;;;-8.10;99.90;;;;;;5027286;28;20121;-40
2022/12/18 07:39:31;;;;;;;45.55;19.77;;;-8.10;99.90;;;;;;5026587;28;20041;-40
2022/12/18 07:44:41;;;;;;;42.80;19.25;;;-8.10;99.90;;;;;;5026576;28;20047;-41
2022/12/18 07:47:06;;;;;;;40.38;19.17;;;-8.00;99.90;;;;;;5026957;28;20049;-40
2022/12/18 07:49:32;;;;;;;42.25;19.92;;;-8.00;99.90;;;;;;5026550;28;20044;-40
2022/12/18 07:51:58;;;;;;;42.75;19.02;;;-7.90;99.90;;;;;;5026768;28;20483;-41
2022/12/18 07:54:24;;;;;;;42.13;19.48;;;-8.00;99.90;;;;;;5026025;28;20613;-40
2022/12/18 07:56:51;;;;;;;40.70;19.88;;;-7.90;99.90;;;;;;5026333;28;20056;-40
2022/12/18 07:59:17;;;;;;;44.40;20.40;;;-7.80;99.90;;;;;;5026245;28;20147;-41
2022/12/18 08:01:43;;;;;;;37.97;19.30;;;-7.90;99.90;;;;;;5026615;28;20038;-40
2022/12/18 08:04:09;;;;;;;41.53;21.35;;;-7.80;99.90;;;;;;5026738;28;20029;-41
2022/12/18 08:06:34;;;;;;;40.25;18.90;;;-8.00;99.90;;;;;;5026653;28;20135;-42
2022/12/18 08:09:00;;;;;;;40.05;18.38;;;-7.80;99.90;;;;;;5026711;28;20119;-40
2022/12/18 08:11:28;;;;;;;35.67;17.15;;;-7.70;99.90;;;;;;5027634;28;20056;-40
2022/12/18 08:13:54;;;;;;;35.83;17.90;;;-7.70;99.90;;;;;;5030195;28;20435;-40
2022/12/18 08:16:21;;;;;;;41.97;19.80;;;-7.70;99.90;;;;;;5029936;28;20052;-40
2022/12/18 08:18:46;;;;;;;36.30;16.85;;;-7.60;99.90;;;;;;5030045;28;20521;-41
2022/12/18 08:21:15;;;;;;;38.90;17.33;;;-7.60;99.90;;;;;;5030201;28;20102;-40
2022/12/18 08:23:41;;;;;;;38.97;20.13;;;-7.50;99.90;;;;;;5030144;28;20049;-41
2022/12/18 08:26:08;;;;;;;31.13;16.77;;;-7.40;99.90;;;;;;5030360;28;20102;-40
2022/12/18 08:28:34;;;;;;;39.15;16.40;;;-5.40;99.90;;;;;;5028833;28;20076;-40
2022/12/18 08:31:00;;;;;;;40.90;18.33;;;-7.30;99.90;;;;;;5030074;28;20120;-40
2022/12/18 08:33:26;;;;;;;31.77;16.90;;;-7.20;99.90;;;;;;5029892;28;20884;-41
2022/12/18 08:35:52;;;;;;;33.88;16.70;;;-7.00;99.90;;;;;;5030366;28;20061;-41
2022/12/18 08:38:18;;;;;;;28.02;14.82;;;-7.00;99.90;;;;;;5029853;28;20055;-41
2022/12/18 08:40:43;;;;;;;29.80;16.17;;;-6.90;99.90;;;;;;5029894;28;20042;-41
2022/12/18 08:45:55;;;;;;;36.65;15.30;;;-6.70;99.90;;;;;;5030090;28;20107;-41
2022/12/18 08:48:20;;;;;;;30.33;15.50;;;-6.70;99.90;;;;;;5029859;28;20116;-40
2022/12/18 08:50:56;;;;;;;35.17;14.57;;;-6.60;99.90;;;;;;5030033;28;20133;-41
2022/12/18 08:53:22;;;;;;;26.77;13.90;;;-6.50;99.90;;;;;;5030103;28;20037;-41
2022/12/18 08:55:48;;;;;;;32.05;15.30;;;-6.40;99.90;;;;;;5029678;28;20638;-40
2022/12/18 08:58:13;;;;;;;29.77;15.20;;;-6.50;99.90;;;;;;5029471;28;20053;-41
2022/12/18 09:00:39;;;;;;;28.00;13.90;;;-6.40;99.90;;;;;;5029644;28;20049;-41
2022/12/18 09:03:05;;;;;;;30.75;14.93;;;-6.30;99.90;;;;;;5029820;28;20080;-41
2022/12/18 09:05:30;;;;;;;26.67;13.88;;;-6.30;99.90;;;;;;5028059;28;20050;-41
2022/12/18 09:07:56;;;;;;;27.80;13.48;;;-6.20;99.90;;;;;;5029644;28;20048;-41
2022/12/18 09:10:22;;;;;;;25.40;13.60;;;-6.20;99.90;;;;;;5029275;28;20045;-41
2022/12/18 09:12:47;;;;;;;22.83;12.55;;;-6.10;99.90;;;;;;5029700;28;20045;-41
2022/12/18 09:15:13;;;;;;;23.60;13.45;;;-6.10;99.90;;;;;;5029749;28;20045;-40
2022/12/18 09:17:39;;;;;;;22.55;13.18;;;-6.00;99.90;;;;;;5029322;28;20447;-41
2022/12/18 09:20:05;;;;;;;24.60;13.55;;;-5.90;99.90;;;;;;5029710;28;20085;-40
2022/12/18 09:22:31;;;;;;;23.05;12.75;;;-5.80;99.90;;;;;;5029402;28;20041;-40
2022/12/18 09:24:56;;;;;;;27.98;13.32;;;-5.80;99.90;;;;;;5029672;28;20454;-41
2022/12/18 09:27:22;;;;;;;25.85;13.38;;;-5.60;99.90;;;;;;5029393;28;20049;-40
2022/12/18 09:29:48;;;;;;;27.55;14.05;;;-5.60;99.90;;;;;;5029281;28;20052;-40
2022/12/18 09:32:14;;;;;;;22.88;11.70;;;-5.50;99.90;;;;;;5028832;28;20221;-41
2022/12/18 09:34:40;;;;;;;29.15;13.27;;;-5.30;99.90;;;;;;5027937;28;20250;-41
2022/12/18 09:37:05;;;;;;;25.08;12.27;;;-5.30;99.90;;;;;;5028976;28;20467;-41
2022/12/18 09:39:31;;;;;;;21.58;12.32;;;-5.20;99.90;;;;;;5028775;28;20052;-41
2022/12/18 09:41:58;;;;;;;23.75;12.32;;;-5.10;99.90;;;;;;5028752;28;20098;-42
2022/12/18 09:44:34;;;;;;;20.67;10.50;;;-5.00;99.90;;;;;;5028859;28;20219;-41
2022/12/18 09:47:27;;;;;;;20.50;11.23;;;-4.80;99.90;;;;;;5028882;28;20107;-41
2022/12/18 09:49:57;;;;;;;20.15;11.70;;;-4.80;99.90;;;;;;5028371;28;20052;-42
2022/12/18 09:52:25;;;;;;;19.90;11.60;;;-4.70;99.90;;;;;;5028116;28;20053;-41
2022/12/18 09:55:01;;;;;;;19.73;11.73;;;-4.60;99.90;;;;;;5027718;28;20055;-41
2022/12/18 09:57:31;;;;;;;19.67;10.93;;;-4.50;99.90;;;;;;5027775;28;20061;-41
2022/12/18 10:00:02;;;;;;;22.42;12.20;;;-4.40;99.90;;;;;;5028562;28;20100;-41
2022/12/18 10:02:31;;;;;;;18.90;10.83;;;-4.20;99.90;;;;;;5028589;28;20032;-41
2022/12/18 10:05:10;;;;;;;21.92;10.57;;;-4.20;99.90;;;;;;5027911;28;20055;-41
2022/12/18 10:08:00;;;;;;;19.25;10.95;;;-4.10;99.90;;;;;;5027273;28;20048;-40
2022/12/18 10:10:25;;;;;;;15.07;8.95;;;-4.10;99.90;;;;;;5028125;28;20054;-41
2022/12/18 10:13:07;;;;;;;19.20;10.30;;;-4.20;99.90;;;;;;5028614;28;20056;-41
2022/12/18 10:15:46;;;;;;;18.67;9.95;;;-4.20;99.90;;;;;;5028131;28;20144;-41
2022/12/18 10:18:29;;;;;;;16.65;9.30;;;-4.30;99.90;;;;;;5028366;28;20049;-41
2022/12/18 10:21:03;;;;;;;15.85;8.82;;;-4.30;99.90;;;;;;5028324;28;20042;-40
2022/12/18 10:23:41;;;;;;;16.70;9.07;;;-4.40;99.90;;;;;;5028494;28;20099;-41
2022/12/18 10:26:11;;;;;;;17.75;9.20;;;-4.40;99.90;;;;;;5028546;28;20152;-41
2022/12/18 10:28:40;;;;;;;17.27;8.98;;;-4.40;99.90;;;;;;5028357;28;20045;-40
2022/12/18 10:31:07;;;;;;;14.50;8.38;;;-4.40;99.90;;;;;;5028265;28;20037;-41
2022/12/18 10:33:33;;;;;;;14.57;8.07;;;-4.40;99.90;;;;;;5027670;28;20056;-41
2022/12/18 10:36:00;;;;;;;15.25;8.68;;;-4.40;99.90;;;;;;5027588;28;20088;-41
2022/12/18 10:38:28;;;;;;;17.08;9.52;;;-4.30;99.90;;;;;;5028612;28;20037;-40
2022/12/18 10:41:01;;;;;;;15.15;8.25;;;-4.30;99.90;;;;;;5028159;28;20585;-40
2022/12/18 10:43:31;;;;;;;16.25;8.45;;;-4.30;99.90;;;;;;5027687;28;20484;-40
2022/12/18 10:46:09;;;;;;;16.80;8.13;;;-4.30;99.90;;;;;;5027593;28;20064;-41
2022/12/18 10:48:47;;;;;;;14.48;8.20;;;-4.30;99.90;;;;;;5027865;28;20052;-40
2022/12/18 10:51:25;;;;;;;15.38;8.32;;;-4.20;99.90;;;;;;5027625;28;20041;-41
2022/12/18 10:54:19;;;;;;;15.70;7.60;;;-4.20;99.90;;;;;;5027900;28;20049;-41
2022/12/18 10:56:45;;;;;;;16.40;8.70;;;-4.20;99.90;;;;;;5024028;28;20119;-41
2022/12/18 10:59:13;;;;;;;13.68;7.40;;;-4.10;99.90;;;;;;5027706;28;20628;-41
2022/12/18 11:01:56;;;;;;;14.38;7.57;;;-4.00;99.90;;;;;;5027303;28;20505;-40
2022/12/18 11:04:32;;;;;;;15.93;7.05;;;-3.90;99.90;;;;;;5027433;28;20606;-41
2022/12/18 11:07:04;;;;;;;11.73;7.45;;;-3.80;99.90;;;;;;5027684;28;20045;-41
2022/12/18 11:09:32;;;;;;;13.00;6.78;;;-3.70;99.90;;;;;;5025616;28;20072;-40
2022/12/18 11:12:01;;;;;;;12.93;7.30;;;-3.60;99.90;;;;;;5027126;28;20049;-40
2022/12/18 11:14:33;;;;;;;16.60;7.95;;;-3.60;99.90;;;;;;5027527;28;20049;-40
2022/12/18 11:17:00;;;;;;;12.07;6.78;;;-3.40;99.90;;;;;;5027220;28;20064;-40
2022/12/18 11:19:31;;;;;;;11.75;6.63;;;-3.20;99.90;;;;;;5027433;28;20124;-41
2022/12/18 11:21:58;;;;;;;10.82;5.78;;;-3.20;99.90;;;;;;5027135;28;20081;-41
2022/12/18 11:24:34;;;;;;;11.23;6.20;;;-3.20;99.90;;;;;;5027572;28;20041;-40
2022/12/18 11:27:03;;;;;;;11.90;7.15;;;-3.00;99.90;;;;;;5027055;28;20045;-41
2022/12/18 11:29:37;;;;;;;12.50;6.65;;;-3.00;99.90;;;;;;5027317;28;20077;-41
2022/12/18 11:32:14;;;;;;;11.27;5.97;;;-2.90;99.90;;;;;;5026832;28;20372;-41
2022/12/18 11:34:46;;;;;;;11.65;6.32;;;-2.90;99.90;;;;;;5026988;28;20061;-41
2022/12/18 11:37:15;;;;;;;12.35;6.88;;;-2.80;99.90;;;;;;5027018;28;20584;-41
2022/12/18 11:39:49;;;;;;;14.27;6.28;;;-2.70;99.90;;;;;;5026837;28;20064;-43
2022/12/18 11:42:24;;;;;;;10.45;6.25;;;-2.80;99.90;;;;;;5027310;28;20450;-41
2022/12/18 11:45:20;;;;;;;10.73;5.53;;;-2.70;99.90;;;;;;5026830;28;20544;-41
2022/12/18 11:48:06;;;;;;;11.05;5.72;;;-2.70;99.90;;;;;;5030381;28;20091;-41
2022/12/18 11:50:38;;;;;;;11.80;5.45;;;-2.60;99.90;;;;;;5031047;28;20045;-42
2022/12/18 11:53:09;;;;;;;9.00;5.30;;;-2.60;99.90;;;;;;5030990;28;20119;-41
2022/12/18 11:55:58;;;;;;;9.57;5.45;;;-2.60;99.90;;;;;;5030780;28;20099;-42
2022/12/18 11:58:36;;;;;;;10.38;5.18;;;-2.50;99.90;;;;;;5030600;28;20530;-41
2022/12/18 12:01:17;;;;;;;10.55;5.53;;;-2.50;99.90;;;;;;5030226;28;20128;-41
2022/12/18 12:03:57;;;;;;;10.85;5.32;;;-2.50;99.90;;;;;;5030877;28;20069;-42
2022/12/18 12:06:54;;;;;;;10.30;5.93;;;-2.40;99.90;;;;;;5031106;28;20691;-41
2022/12/18 12:09:35;;;;;;;10.05;4.78;;;-2.40;99.90;;;;;;5030586;28;20045;-41
2022/12/18 12:12:19;;;;;;;13.57;5.97;;;-2.40;99.90;;;;;;5030297;28;20544;-41
2022/12/18 12:15:31;;;;;;;10.27;5.47;;;-2.40;99.90;;;;;;5030395;28;20041;-41
2022/12/18 12:18:13;;;;;;;9.07;4.85;;;-2.30;99.90;;;;;;5030139;28;20797;-41
2022/12/18 12:21:02;;;;;;;10.77;4.28;;;-2.30;99.90;;;;;;5030397;28;20424;-42
2022/12/18 12:23:54;;;;;;;10.10;5.07;;;-2.30;99.90;;;;;;5030119;28;20527;-41
2022/12/18 12:26:33;;;;;;;9.32;5.15;;;-2.20;99.90;;;;;;5027157;28;20062;-42
2022/12/18 12:29:22;;;;;;;8.68;5.15;;;-2.30;99.90;;;;;;5029844;28;20060;-41
2022/12/18 12:31:57;;;;;;;9.65;5.35;;;-2.20;99.90;;;;;;5030356;28;20045;-41
2022/12/18 12:34:30;;;;;;;13.13;5.78;;;-2.90;99.90;;;;;;5030420;28;20103;-42
2022/12/18 12:37:11;;;;;;;10.43;5.43;;;-2.10;99.90;;;;;;5030129;28;20120;-41
2022/12/18 12:39:40;;;;;;;12.65;6.32;;;-2.10;99.90;;;;;;5030103;28;20050;-41
2022/12/18 12:45:23;;;;;;;9.82;5.78;;;-2.10;99.90;;;;;;5029900;28;20060;-41
2022/12/18 12:47:50;;;;;;;13.20;5.53;;;-2.00;99.90;;;;;;5029872;28;20129;-43
2022/12/18 12:50:19;;;;;;;11.45;6.32;;;-2.10;99.90;;;;;;5030328;28;20052;-40